sensor_id;sensor_type;location;lat;lon;timestamp;P1;durP1;ratioP1;P2;durP2;ratioP2
9904;SDS011;4991;43.566;27.820;2023-12-20T00:01:24;0.00;;;0.00;;
9904;SDS011;4991;43.566;27.820;2023-12-20T00:04:29;0.10;;;0.10;;
9904;SDS011;4991;43.566;27.820;2023-12-20T00:07:18;0.10;;;0.10;;
9904;SDS011;4991;43.566;27.820;2023-12-20T00:10:04;0.10;;;0.10;;
9904;SDS011;4991;43.566;27.820;2023-12-20T00:13:09;0.00;;;0.00;;
9904;SDS011;4991;43.566;27.820;2023-12-20T00:16:00;0.10;;;0.10;;
9904;SDS011;4991;43.566;27.820;2023-12-20T00:18:51;0.10;;;0.10;;
9904;SDS011;4991;43.566;27.820;2023-12-20T00:21:59;0.10;;;0.10;;
9904;SDS011;4991;43.566;27.820;2023-12-20T00:24:52;0.00;;;0.00;;
9904;SDS011;4991;43.566;27.820;2023-12-20T00:28:14;0.10;;;0.10;;
9904;SDS011;4991;43.566;27.820;2023-12-20T00:31:28;0.10;;;0.10;;
9904;SDS011;4991;43.566;27.820;2023-12-20T00:34:34;0.10;;;0.10;;
9904;SDS011;4991;43.566;27.820;2023-12-20T00:37:42;0.10;;;0.10;;
9904;SDS011;4991;43.566;27.820;2023-12-20T00:40:30;0.10;;;0.10;;
9904;SDS011;4991;43.566;27.820;2023-12-20T00:43:35;0.10;;;0.10;;
9904;SDS011;4991;43.566;27.820;2023-12-20T00:46:41;0.10;;;0.10;;
9904;SDS011;4991;43.566;27.820;2023-12-20T00:49:47;0.10;;;0.10;;
9904;SDS011;4991;43.566;27.820;2023-12-20T00:52:38;0.10;;;0.10;;
9904;SDS011;4991;43.566;27.820;2023-12-20T00:55:07;0.10;;;0.10;;
9904;SDS011;4991;43.566;27.820;2023-12-20T00:57:33;0.00;;;0.00;;
9904;SDS011;4991;43.566;27.820;2023-12-20T01:00:04;0.20;;;0.20;;
9904;SDS011;4991;43.566;27.820;2023-12-20T01:02:37;0.10;;;0.10;;
9904;SDS011;4991;43.566;27.820;2023-12-20T01:05:23;0.00;;;0.00;;
9904;SDS011;4991;43.566;27.820;2023-12-20T01:08:11;0.00;;;0.00;;
9904;SDS011;4991;43.566;27.820;2023-12-20T01:10:58;0.10;;;0.10;;
9904;SDS011;4991;43.566;27.820;2023-12-20T01:13:46;0.10;;;0.10;;
9904;SDS011;4991;43.566;27.820;2023-12-20T01:16:37;0.10;;;0.10;;
9904;SDS011;4991;43.566;27.820;2023-12-20T01:19:42;0.10;;;0.10;;
9904;SDS011;4991;43.566;27.820;2023-12-20T01:22:08;0.10;;;0.10;;
9904;SDS011;4991;43.566;27.820;2023-12-20T01:24:53;0.10;;;0.10;;
9904;SDS011;4991;43.566;27.820;2023-12-20T01:27:20;0.20;;;0.20;;
9904;SDS011;4991;43.566;27.820;2023-12-20T01:29:46;0.10;;;0.10;;
9904;SDS011;4991;43.566;27.820;2023-12-20T01:32:34;0.10;;;0.10;;
9904;SDS011;4991;43.566;27.820;2023-12-20T01:35:41;0.20;;;0.20;;
9904;SDS011;4991;43.566;27.820;2023-12-20T01:38:27;0.10;;;0.10;;
9904;SDS011;4991;43.566;27.820;2023-12-20T01:41:14;0.10;;;0.10;;
9904;SDS011;4991;43.566;27.820;2023-12-20T01:43:39;0.10;;;0.10;;
9904;SDS011;4991;43.566;27.820;2023-12-20T01:46:45;0.10;;;0.10;;
9904;SDS011;4991;43.566;27.820;2023-12-20T01:49:54;0.10;;;0.10;;
9904;SDS011;4991;43.566;27.820;2023-12-20T01:52:41;0.00;;;0.00;;
9904;SDS011;4991;43.566;27.820;2023-12-20T02:02:25;0.03;;;0.03;;
9904;SDS011;4991;43.566;27.820;2023-12-20T02:05:05;0.00;;;0.00;;
9904;SDS011;4991;43.566;27.820;2023-12-20T02:08:09;0.10;;;0.10;;
9904;SDS011;4991;43.566;27.820;2023-12-20T02:10:55;0.10;;;0.10;;
9904;SDS011;4991;43.566;27.820;2023-12-20T02:13:24;0.00;;;0.00;;
9904;SDS011;4991;43.566;27.820;2023-12-20T02:16:09;0.10;;;0.10;;
9904;SDS011;4991;43.566;27.820;2023-12-20T02:18:36;0.00;;;0.00;;
9904;SDS011;4991;43.566;27.820;2023-12-20T02:21:44;0.10;;;0.10;;
9904;SDS011;4991;43.566;27.820;2023-12-20T02:24:12;0.10;;;0.10;;
9904;SDS011;4991;43.566;27.820;2023-12-20T02:26:39;0.00;;;0.00;;
9904;SDS011;4991;43.566;27.820;2023-12-20T02:29:44;0.10;;;0.10;;
9904;SDS011;4991;43.566;27.820;2023-12-20T02:32:32;0.10;;;0.10;;
9904;SDS011;4991;43.566;27.820;2023-12-20T02:35:04;0.00;;;0.00;;
9904;SDS011;4991;43.566;27.820;2023-12-20T02:37:37;0.10;;;0.10;;
9904;SDS011;4991;43.566;27.820;2023-12-20T02:40:47;0.10;;;0.10;;
9904;SDS011;4991;43.566;27.820;2023-12-20T02:43:15;0.10;;;0.10;;
9904;SDS011;4991;43.566;27.820;2023-12-20T02:46:01;0.10;;;0.10;;
9904;SDS011;4991;43.566;27.820;2023-12-20T02:48:27;0.10;;;0.10;;
9904;SDS011;4991;43.566;27.820;2023-12-20T02:51:33;0.10;;;0.10;;
9904;SDS011;4991;43.566;27.820;2023-12-20T02:54:18;0.10;;;0.10;;
9904;SDS011;4991;43.566;27.820;2023-12-20T02:56:44;0.10;;;0.10;;
9904;SDS011;4991;43.566;27.820;2023-12-20T02:59:10;0.10;;;0.10;;
9904;SDS011;4991;43.566;27.820;2023-12-20T03:01:40;0.10;;;0.10;;
9904;SDS011;4991;43.566;27.820;2023-12-20T03:04:07;0.10;;;0.10;;
9904;SDS011;4991;43.566;27.820;2023-12-20T03:06:33;0.20;;;0.20;;
9904;SDS011;4991;43.566;27.820;2023-12-20T03:08:59;0.10;;;0.10;;
9904;SDS011;4991;43.566;27.820;2023-12-20T03:11:27;0.20;;;0.20;;
9904;SDS011;4991;43.566;27.820;2023-12-20T03:13:54;0.10;;;0.10;;
9904;SDS011;4991;43.566;27.820;2023-12-20T03:16:19;0.10;;;0.10;;
9904;SDS011;4991;43.566;27.820;2023-12-20T03:18:45;0.00;;;0.00;;
9904;SDS011;4991;43.566;27.820;2023-12-20T03:21:33;0.10;;;0.10;;
9904;SDS011;4991;43.566;27.820;2023-12-20T03:24:38;0.10;;;0.10;;
9904;SDS011;4991;43.566;27.820;2023-12-20T03:27:06;0.10;;;0.10;;
9904;SDS011;4991;43.566;27.820;2023-12-20T03:29:51;0.00;;;0.00;;
9904;SDS011;4991;43.566;27.820;2023-12-20T03:32:19;0.20;;;0.20;;
9904;SDS011;4991;43.566;27.820;2023-12-20T03:34:46;0.10;;;0.10;;
9904;SDS011;4991;43.566;27.820;2023-12-20T03:37:32;0.20;;;0.20;;
9904;SDS011;4991;43.566;27.820;2023-12-20T03:40:00;0.20;;;0.20;;
9904;SDS011;4991;43.566;27.820;2023-12-20T03:43:05;0.00;;;0.00;;
9904;SDS011;4991;43.566;27.820;2023-12-20T03:46:25;0.00;;;0.00;;
9904;SDS011;4991;43.566;27.820;2023-12-20T03:49:29;0.00;;;0.00;;
9904;SDS011;4991;43.566;27.820;2023-12-20T03:52:52;0.10;;;0.10;;
9904;SDS011;4991;43.566;27.820;2023-12-20T03:55:44;0.10;;;0.10;;
9904;SDS011;4991;43.566;27.820;2023-12-20T04:01:43;0.03;;;0.03;;
9904;SDS011;4991;43.566;27.820;2023-12-20T04:04:10;0.10;;;0.10;;
9904;SDS011;4991;43.566;27.820;2023-12-20T04:06:55;0.10;;;0.10;;
9904;SDS011;4991;43.566;27.820;2023-12-20T04:09:41;0.10;;;0.10;;
9904;SDS011;4991;43.566;27.820;2023-12-20T04:12:46;0.10;;;0.10;;
9904;SDS011;4991;43.566;27.820;2023-12-20T04:15:11;0.10;;;0.10;;
9904;SDS011;4991;43.566;27.820;2023-12-20T04:17:57;0.10;;;0.10;;
9904;SDS011;4991;43.566;27.820;2023-12-20T04:20:45;0.10;;;0.10;;
9904;SDS011;4991;43.566;27.820;2023-12-20T04:29:25;0.10;;;0.10;;
9904;SDS011;4991;43.566;27.820;2023-12-20T04:32:33;0.00;;;0.00;;
9904;SDS011;4991;43.566;27.820;2023-12-20T04:35:38;0.10;;;0.10;;
9904;SDS011;4991;43.566;27.820;2023-12-20T04:38:43;0.10;;;0.10;;
9904;SDS011;4991;43.566;27.820;2023-12-20T04:44:27;0.10;;;0.10;;
9904;SDS011;4991;43.566;27.820;2023-12-20T04:46:53;0.10;;;0.10;;
9904;SDS011;4991;43.566;27.820;2023-12-20T04:49:19;0.10;;;0.10;;
9904;SDS011;4991;43.566;27.820;2023-12-20T04:51:46;0.10;;;0.10;;
9904;SDS011;4991;43.566;27.820;2023-12-20T04:55:05;0.10;;;0.10;;
9904;SDS011;4991;43.566;27.820;2023-12-20T04:58:10;0.10;;;0.10;;
9904;SDS011;4991;43.566;27.820;2023-12-20T05:00:57;0.10;;;0.10;;
9904;SDS011;4991;43.566;27.820;2023-12-20T05:03:43;0.10;;;0.10;;
9904;SDS011;4991;43.566;27.820;2023-12-20T05:06:10;0.10;;;0.10;;
9904;SDS011;4991;43.566;27.820;2023-12-20T05:08:36;0.10;;;0.10;;
9904;SDS011;4991;43.566;27.820;2023-12-20T05:11:02;0.10;;;0.10;;
9904;SDS011;4991;43.566;27.820;2023-12-20T05:13:49;0.10;;;0.10;;
9904;SDS011;4991;43.566;27.820;2023-12-20T05:16:15;0.00;;;0.00;;
9904;SDS011;4991;43.566;27.820;2023-12-20T05:19:19;0.10;;;0.10;;
9904;SDS011;4991;43.566;27.820;2023-12-20T05:22:30;0.10;;;0.10;;
9904;SDS011;4991;43.566;27.820;2023-12-20T05:25:18;0.10;;;0.10;;
9904;SDS011;4991;43.566;27.820;2023-12-20T05:28:27;0.07;;;0.07;;
9904;SDS011;4991;43.566;27.820;2023-12-20T05:31:36;0.10;;;0.10;;
9904;SDS011;4991;43.566;27.820;2023-12-20T05:34:42;0.10;;;0.10;;
9904;SDS011;4991;43.566;27.820;2023-12-20T05:37:47;0.10;;;0.10;;
9904;SDS011;4991;43.566;27.820;2023-12-20T05:40:52;0.00;;;0.00;;
9904;SDS011;4991;43.566;27.820;2023-12-20T05:43:18;0.00;;;0.00;;
9904;SDS011;4991;43.566;27.820;2023-12-20T05:46:24;0.13;;;0.13;;
9904;SDS011;4991;43.566;27.820;2023-12-20T05:49:09;0.10;;;0.10;;
9904;SDS011;4991;43.566;27.820;2023-12-20T05:52:08;0.10;;;0.10;;
9904;SDS011;4991;43.566;27.820;2023-12-20T08:50:38;0.10;;;0.10;;
9904;SDS011;4991;43.566;27.820;2023-12-20T08:57:12;0.20;;;0.20;;
9904;SDS011;4991;43.566;27.820;2023-12-20T09:00:34;0.10;;;0.10;;
9904;SDS011;4991;43.566;27.820;2023-12-20T09:03:37;0.20;;;0.20;;
9904;SDS011;4991;43.566;27.820;2023-12-20T09:06:59;0.20;;;0.20;;
9904;SDS011;4991;43.566;27.820;2023-12-20T09:09:45;0.30;;;0.30;;
9904;SDS011;4991;43.566;27.820;2023-12-20T09:12:55;0.20;;;0.20;;
9904;SDS011;4991;43.566;27.820;2023-12-20T09:15:25;0.20;;;0.20;;
9904;SDS011;4991;43.566;27.820;2023-12-20T09:26:20;0.20;;;0.20;;
9904;SDS011;4991;43.566;27.820;2023-12-20T09:29:06;0.20;;;0.20;;
9904;SDS011;4991;43.566;27.820;2023-12-20T09:31:32;0.20;;;0.20;;
9904;SDS011;4991;43.566;27.820;2023-12-20T09:34:19;0.23;;;0.23;;
9904;SDS011;4991;43.566;27.820;2023-12-20T09:37:05;0.20;;;0.20;;
9904;SDS011;4991;43.566;27.820;2023-12-20T09:39:30;0.20;;;0.20;;
9904;SDS011;4991;43.566;27.820;2023-12-20T09:44:51;0.30;;;0.30;;
9904;SDS011;4991;43.566;27.820;2023-12-20T09:47:19;0.23;;;0.23;;
9904;SDS011;4991;43.566;27.820;2023-12-20T09:50:30;0.27;;;0.27;;
9904;SDS011;4991;43.566;27.820;2023-12-20T09:53:16;0.20;;;0.20;;
9904;SDS011;4991;43.566;27.820;2023-12-20T09:56:26;0.30;;;0.30;;
9904;SDS011;4991;43.566;27.820;2023-12-20T09:59:16;0.30;;;0.30;;
9904;SDS011;4991;43.566;27.820;2023-12-20T10:05:06;0.30;;;0.30;;
9904;SDS011;4991;43.566;27.820;2023-12-20T11:24:44;0.20;;;0.20;;
9904;SDS011;4991;43.566;27.820;2023-12-20T11:28:10;0.20;;;0.20;;
9904;SDS011;4991;43.566;27.820;2023-12-20T11:30:55;0.20;;;0.20;;
9904;SDS011;4991;43.566;27.820;2023-12-20T11:34:17;0.20;;;0.20;;
9904;SDS011;4991;43.566;27.820;2023-12-20T11:37:06;0.30;;;0.30;;
9904;SDS011;4991;43.566;27.820;2023-12-20T11:40:13;0.20;;;0.20;;
9904;SDS011;4991;43.566;27.820;2023-12-20T11:43:08;0.20;;;0.20;;
9904;SDS011;4991;43.566;27.820;2023-12-20T11:46:02;0.20;;;0.20;;
9904;SDS011;4991;43.566;27.820;2023-12-20T11:49:11;0.20;;;0.20;;
9904;SDS011;4991;43.566;27.820;2023-12-20T11:52:04;0.20;;;0.20;;
9904;SDS011;4991;43.566;27.820;2023-12-20T11:55:13;0.20;;;0.20;;
9904;SDS011;4991;43.566;27.820;2023-12-20T11:57:41;0.30;;;0.30;;
9904;SDS011;4991;43.566;27.820;2023-12-20T12:00:55;0.20;;;0.20;;
9904;SDS011;4991;43.566;27.820;2023-12-20T12:04:06;0.20;;;0.20;;
9904;SDS011;4991;43.566;27.820;2023-12-20T12:07:00;0.20;;;0.20;;
9904;SDS011;4991;43.566;27.820;2023-12-20T12:09:54;0.20;;;0.20;;
9904;SDS011;4991;43.566;27.820;2023-12-20T12:13:00;0.20;;;0.20;;
9904;SDS011;4991;43.566;27.820;2023-12-20T12:16:09;0.20;;;0.20;;
9904;SDS011;4991;43.566;27.820;2023-12-20T12:18:37;0.20;;;0.20;;
9904;SDS011;4991;43.566;27.820;2023-12-20T12:21:24;0.30;;;0.30;;
9904;SDS011;4991;43.566;27.820;2023-12-20T12:23:53;0.20;;;0.20;;
9904;SDS011;4991;43.566;27.820;2023-12-20T12:27:01;0.20;;;0.20;;
9904;SDS011;4991;43.566;27.820;2023-12-20T12:30:04;0.20;;;0.20;;
9904;SDS011;4991;43.566;27.820;2023-12-20T12:32:53;0.20;;;0.20;;
9904;SDS011;4991;43.566;27.820;2023-12-20T12:35:19;0.20;;;0.20;;
9904;SDS011;4991;43.566;27.820;2023-12-20T12:38:06;0.30;;;0.30;;
9904;SDS011;4991;43.566;27.820;2023-12-20T12:40:55;0.20;;;0.20;;
9904;SDS011;4991;43.566;27.820;2023-12-20T12:43:41;0.20;;;0.20;;
9904;SDS011;4991;43.566;27.820;2023-12-20T12:46:07;0.20;;;0.20;;
9904;SDS011;4991;43.566;27.820;2023-12-20T12:48:37;0.23;;;0.23;;
9904;SDS011;4991;43.566;27.820;2023-12-20T12:51:30;0.30;;;0.30;;
9904;SDS011;4991;43.566;27.820;2023-12-20T12:54:16;0.30;;;0.30;;
9904;SDS011;4991;43.566;27.820;2023-12-20T12:56:44;0.30;;;0.30;;
9904;SDS011;4991;43.566;27.820;2023-12-20T12:59:29;0.20;;;0.20;;
9904;SDS011;4991;43.566;27.820;2023-12-20T13:01:56;0.30;;;0.30;;
9904;SDS011;4991;43.566;27.820;2023-12-20T13:05:04;0.20;;;0.20;;
9904;SDS011;4991;43.566;27.820;2023-12-20T13:08:12;0.30;;;0.30;;
9904;SDS011;4991;43.566;27.820;2023-12-20T13:10:40;0.20;;;0.20;;
9904;SDS011;4991;43.566;27.820;2023-12-20T13:13:32;0.20;;;0.20;;
9904;SDS011;4991;43.566;27.820;2023-12-20T13:16:38;0.20;;;0.20;;
9904;SDS011;4991;43.566;27.820;2023-12-20T13:19:44;0.20;;;0.20;;
9904;SDS011;4991;43.566;27.820;2023-12-20T13:22:31;0.30;;;0.30;;
9904;SDS011;4991;43.566;27.820;2023-12-20T13:24:59;0.20;;;0.20;;
9904;SDS011;4991;43.566;27.820;2023-12-20T13:27:47;0.27;;;0.27;;
9904;SDS011;4991;43.566;27.820;2023-12-20T13:30:35;0.20;;;0.20;;
9904;SDS011;4991;43.566;27.820;2023-12-20T13:33:42;0.30;;;0.30;;
9904;SDS011;4991;43.566;27.820;2023-12-20T13:36:27;0.20;;;0.20;;
9904;SDS011;4991;43.566;27.820;2023-12-20T13:39:32;0.20;;;0.20;;
9904;SDS011;4991;43.566;27.820;2023-12-20T13:42:18;0.20;;;0.20;;
9904;SDS011;4991;43.566;27.820;2023-12-20T13:45:24;0.20;;;0.20;;
9904;SDS011;4991;43.566;27.820;2023-12-20T13:48:39;0.20;;;0.20;;
9904;SDS011;4991;43.566;27.820;2023-12-20T13:51:36;0.20;;;0.20;;
9904;SDS011;4991;43.566;27.820;2023-12-20T13:54:41;0.20;;;0.20;;
9904;SDS011;4991;43.566;27.820;2023-12-20T13:57:26;0.30;;;0.30;;
9904;SDS011;4991;43.566;27.820;2023-12-20T14:00:32;0.20;;;0.20;;
9904;SDS011;4991;43.566;27.820;2023-12-20T14:03:17;0.20;;;0.20;;
9904;SDS011;4991;43.566;27.820;2023-12-20T14:06:03;0.20;;;0.20;;
9904;SDS011;4991;43.566;27.820;2023-12-20T14:08:29;0.20;;;0.20;;
9904;SDS011;4991;43.566;27.820;2023-12-20T14:11:15;0.20;;;0.20;;
9904;SDS011;4991;43.566;27.820;2023-12-20T14:13:42;0.20;;;0.20;;
9904;SDS011;4991;43.566;27.820;2023-12-20T14:16:28;0.20;;;0.20;;
9904;SDS011;4991;43.566;27.820;2023-12-20T14:19:16;0.13;;;0.13;;
9904;SDS011;4991;43.566;27.820;2023-12-20T14:21:42;0.20;;;0.20;;
9904;SDS011;4991;43.566;27.820;2023-12-20T14:24:29;0.20;;;0.20;;
9904;SDS011;4991;43.566;27.820;2023-12-20T14:27:24;0.20;;;0.20;;
9904;SDS011;4991;43.566;27.820;2023-12-20T14:30:10;0.20;;;0.20;;
9904;SDS011;4991;43.566;27.820;2023-12-20T14:33:15;0.10;;;0.10;;
9904;SDS011;4991;43.566;27.820;2023-12-20T14:35:41;0.20;;;0.20;;
9904;SDS011;4991;43.566;27.820;2023-12-20T14:38:27;0.20;;;0.20;;
9904;SDS011;4991;43.566;27.820;2023-12-20T14:41:13;0.20;;;0.20;;
9904;SDS011;4991;43.566;27.820;2023-12-20T14:43:38;0.20;;;0.20;;
9904;SDS011;4991;43.566;27.820;2023-12-20T14:46:24;0.20;;;0.20;;
9904;SDS011;4991;43.566;27.820;2023-12-20T14:49:10;0.10;;;0.10;;
9904;SDS011;4991;43.566;27.820;2023-12-20T14:51:57;0.10;;;0.10;;
9904;SDS011;4991;43.566;27.820;2023-12-20T14:54:23;0.13;;;0.13;;
9904;SDS011;4991;43.566;27.820;2023-12-20T14:56:51;0.10;;;0.10;;
9904;SDS011;4991;43.566;27.820;2023-12-20T14:59:36;0.10;;;0.10;;
9904;SDS011;4991;43.566;27.820;2023-12-20T15:02:03;0.20;;;0.20;;
9904;SDS011;4991;43.566;27.820;2023-12-20T15:04:49;0.10;;;0.10;;
9904;SDS011;4991;43.566;27.820;2023-12-20T15:07:35;0.10;;;0.10;;
9904;SDS011;4991;43.566;27.820;2023-12-20T15:10:29;0.10;;;0.10;;
9904;SDS011;4991;43.566;27.820;2023-12-20T15:16:11;0.10;;;0.10;;
9904;SDS011;4991;43.566;27.820;2023-12-20T15:18:38;0.10;;;0.10;;
9904;SDS011;4991;43.566;27.820;2023-12-20T15:21:04;0.10;;;0.10;;
9904;SDS011;4991;43.566;27.820;2023-12-20T15:23:59;0.10;;;0.10;;
9904;SDS011;4991;43.566;27.820;2023-12-20T15:26:39;0.10;;;0.10;;
9904;SDS011;4991;43.566;27.820;2023-12-20T15:29:26;0.10;;;0.10;;
9904;SDS011;4991;43.566;27.820;2023-12-20T15:32:12;0.10;;;0.10;;
9904;SDS011;4991;43.566;27.820;2023-12-20T15:34:41;0.10;;;0.10;;
9904;SDS011;4991;43.566;27.820;2023-12-20T15:37:54;0.10;;;0.10;;
9904;SDS011;4991;43.566;27.820;2023-12-20T15:40:59;0.10;;;0.10;;
9904;SDS011;4991;43.566;27.820;2023-12-20T15:43:45;0.10;;;0.10;;
9904;SDS011;4991;43.566;27.820;2023-12-20T15:46:13;0.10;;;0.10;;
9904;SDS011;4991;43.566;27.820;2023-12-20T15:48:59;0.10;;;0.10;;
9904;SDS011;4991;43.566;27.820;2023-12-20T15:52:06;0.10;;;0.10;;
9904;SDS011;4991;43.566;27.820;2023-12-20T15:55:12;0.10;;;0.10;;
9904;SDS011;4991;43.566;27.820;2023-12-20T15:57:59;0.10;;;0.10;;
9904;SDS011;4991;43.566;27.820;2023-12-20T16:01:06;0.10;;;0.10;;
9904;SDS011;4991;43.566;27.820;2023-12-20T16:03:51;0.10;;;0.10;;
9904;SDS011;4991;43.566;27.820;2023-12-20T16:06:56;0.10;;;0.10;;
9904;SDS011;4991;43.566;27.820;2023-12-20T16:09:42;0.10;;;0.10;;
9904;SDS011;4991;43.566;27.820;2023-12-20T16:12:47;0.10;;;0.10;;
9904;SDS011;4991;43.566;27.820;2023-12-20T16:15:15;0.10;;;0.10;;
9904;SDS011;4991;43.566;27.820;2023-12-20T16:20:53;0.10;;;0.10;;
9904;SDS011;4991;43.566;27.820;2023-12-20T16:23:38;0.10;;;0.10;;
9904;SDS011;4991;43.566;27.820;2023-12-20T16:26:05;0.10;;;0.10;;
9904;SDS011;4991;43.566;27.820;2023-12-20T16:29:12;0.10;;;0.10;;
9904;SDS011;4991;43.566;27.820;2023-12-20T16:31:40;0.10;;;0.10;;
9904;SDS011;4991;43.566;27.820;2023-12-20T16:34:25;0.10;;;0.10;;
9904;SDS011;4991;43.566;27.820;2023-12-20T16:37:11;0.10;;;0.10;;
9904;SDS011;4991;43.566;27.820;2023-12-20T16:40:16;0.10;;;0.10;;
9904;SDS011;4991;43.566;27.820;2023-12-20T16:43:03;0.10;;;0.10;;
9904;SDS011;4991;43.566;27.820;2023-12-20T16:46:00;0.10;;;0.10;;
9904;SDS011;4991;43.566;27.820;2023-12-20T16:49:08;0.10;;;0.10;;
9904;SDS011;4991;43.566;27.820;2023-12-20T16:52:00;0.10;;;0.10;;
9904;SDS011;4991;43.566;27.820;2023-12-20T16:54:48;0.10;;;0.10;;
9904;SDS011;4991;43.566;27.820;2023-12-20T16:57:53;0.10;;;0.10;;
9904;SDS011;4991;43.566;27.820;2023-12-20T17:00:58;0.10;;;0.10;;
9904;SDS011;4991;43.566;27.820;2023-12-20T17:03:25;0.10;;;0.10;;
9904;SDS011;4991;43.566;27.820;2023-12-20T17:06:31;0.10;;;0.10;;
9904;SDS011;4991;43.566;27.820;2023-12-20T17:09:00;0.10;;;0.10;;
9904;SDS011;4991;43.566;27.820;2023-12-20T17:11:49;0.10;;;0.10;;
9904;SDS011;4991;43.566;27.820;2023-12-20T17:14:34;0.10;;;0.10;;
9904;SDS011;4991;43.566;27.820;2023-12-20T17:17:21;0.10;;;0.10;;
9904;SDS011;4991;43.566;27.820;2023-12-20T17:19:53;0.10;;;0.10;;
9904;SDS011;4991;43.566;27.820;2023-12-20T17:22:40;0.10;;;0.10;;
9904;SDS011;4991;43.566;27.820;2023-12-20T17:25:29;0.10;;;0.10;;
9904;SDS011;4991;43.566;27.820;2023-12-20T17:28:15;0.10;;;0.10;;
9904;SDS011;4991;43.566;27.820;2023-12-20T17:30:41;0.10;;;0.10;;
9904;SDS011;4991;43.566;27.820;2023-12-20T17:33:36;0.10;;;0.10;;
9904;SDS011;4991;43.566;27.820;2023-12-20T17:36:01;0.10;;;0.10;;
9904;SDS011;4991;43.566;27.820;2023-12-20T17:38:47;0.10;;;0.10;;
9904;SDS011;4991;43.566;27.820;2023-12-20T17:41:14;0.10;;;0.10;;
9904;SDS011;4991;43.566;27.820;2023-12-20T17:44:02;0.10;;;0.10;;
9904;SDS011;4991;43.566;27.820;2023-12-20T17:46:53;0.10;;;0.10;;
9904;SDS011;4991;43.566;27.820;2023-12-20T17:50:12;0.10;;;0.10;;
9904;SDS011;4991;43.566;27.820;2023-12-20T17:53:23;0.10;;;0.10;;
9904;SDS011;4991;43.566;27.820;2023-12-20T17:56:11;0.10;;;0.10;;
9904;SDS011;4991;43.566;27.820;2023-12-20T17:58:56;0.10;;;0.10;;
9904;SDS011;4991;43.566;27.820;2023-12-20T18:01:26;0.10;;;0.10;;
9904;SDS011;4991;43.566;27.820;2023-12-20T18:03:52;0.10;;;0.10;;
9904;SDS011;4991;43.566;27.820;2023-12-20T18:06:19;0.10;;;0.10;;
9904;SDS011;4991;43.566;27.820;2023-12-20T18:09:04;0.10;;;0.10;;
9904;SDS011;4991;43.566;27.820;2023-12-20T18:11:50;0.10;;;0.10;;
9904;SDS011;4991;43.566;27.820;2023-12-20T18:14:18;0.10;;;0.10;;
9904;SDS011;4991;43.566;27.820;2023-12-20T18:17:05;0.10;;;0.10;;
9904;SDS011;4991;43.566;27.820;2023-12-20T18:19:31;0.10;;;0.10;;
9904;SDS011;4991;43.566;27.820;2023-12-20T18:22:44;0.10;;;0.10;;
9904;SDS011;4991;43.566;27.820;2023-12-20T18:25:11;0.10;;;0.10;;
9904;SDS011;4991;43.566;27.820;2023-12-20T18:27:58;0.10;;;0.10;;
9904;SDS011;4991;43.566;27.820;2023-12-20T18:31:03;0.10;;;0.10;;
9904;SDS011;4991;43.566;27.820;2023-12-20T18:33:29;0.10;;;0.10;;
9904;SDS011;4991;43.566;27.820;2023-12-20T18:35:59;0.10;;;0.10;;
9904;SDS011;4991;43.566;27.820;2023-12-20T18:38:27;0.10;;;0.10;;
9904;SDS011;4991;43.566;27.820;2023-12-20T18:41:13;0.10;;;0.10;;
9904;SDS011;4991;43.566;27.820;2023-12-20T18:44:25;0.10;;;0.10;;
9904;SDS011;4991;43.566;27.820;2023-12-20T18:47:10;0.10;;;0.10;;
9904;SDS011;4991;43.566;27.820;2023-12-20T18:49:35;0.10;;;0.10;;
9904;SDS011;4991;43.566;27.820;2023-12-20T18:52:01;0.10;;;0.10;;
9904;SDS011;4991;43.566;27.820;2023-12-20T18:54:28;0.10;;;0.10;;
9904;SDS011;4991;43.566;27.820;2023-12-20T18:57:14;0.10;;;0.10;;
9904;SDS011;4991;43.566;27.820;2023-12-20T18:59:42;0.10;;;0.10;;
9904;SDS011;4991;43.566;27.820;2023-12-20T19:02:08;0.10;;;0.10;;
9904;SDS011;4991;43.566;27.820;2023-12-20T19:04:56;0.10;;;0.10;;
9904;SDS011;4991;43.566;27.820;2023-12-20T19:07:42;0.10;;;0.10;;
9904;SDS011;4991;43.566;27.820;2023-12-20T19:10:09;0.10;;;0.10;;
9904;SDS011;4991;43.566;27.820;2023-12-20T19:12:54;0.10;;;0.10;;
9904;SDS011;4991;43.566;27.820;2023-12-20T19:15:20;0.10;;;0.10;;
9904;SDS011;4991;43.566;27.820;2023-12-20T19:17:47;0.20;;;0.20;;
9904;SDS011;4991;43.566;27.820;2023-12-20T19:20:13;0.10;;;0.10;;
9904;SDS011;4991;43.566;27.820;2023-12-20T19:22:39;0.10;;;0.10;;
9904;SDS011;4991;43.566;27.820;2023-12-20T19:25:05;0.10;;;0.10;;
9904;SDS011;4991;43.566;27.820;2023-12-20T19:28:20;0.10;;;0.10;;
9904;SDS011;4991;43.566;27.820;2023-12-20T19:30:48;0.10;;;0.10;;
9904;SDS011;4991;43.566;27.820;2023-12-20T19:33:14;0.10;;;0.10;;
9904;SDS011;4991;43.566;27.820;2023-12-20T19:36:01;0.10;;;0.10;;
9904;SDS011;4991;43.566;27.820;2023-12-20T19:38:48;0.10;;;0.10;;
9904;SDS011;4991;43.566;27.820;2023-12-20T19:41:34;0.10;;;0.10;;
9904;SDS011;4991;43.566;27.820;2023-12-20T19:43:59;0.10;;;0.10;;
9904;SDS011;4991;43.566;27.820;2023-12-20T19:46:28;0.10;;;0.10;;
9904;SDS011;4991;43.566;27.820;2023-12-20T19:48:53;0.10;;;0.10;;
9904;SDS011;4991;43.566;27.820;2023-12-20T19:51:39;0.10;;;0.10;;
9904;SDS011;4991;43.566;27.820;2023-12-20T19:54:05;0.20;;;0.20;;
9904;SDS011;4991;43.566;27.820;2023-12-20T19:56:51;0.10;;;0.10;;
9904;SDS011;4991;43.566;27.820;2023-12-20T19:59:17;0.10;;;0.10;;
9904;SDS011;4991;43.566;27.820;2023-12-20T20:01:42;0.10;;;0.10;;
9904;SDS011;4991;43.566;27.820;2023-12-20T20:04:09;0.10;;;0.10;;
9904;SDS011;4991;43.566;27.820;2023-12-20T20:06:55;0.10;;;0.10;;
9904;SDS011;4991;43.566;27.820;2023-12-20T20:09:21;0.10;;;0.10;;
9904;SDS011;4991;43.566;27.820;2023-12-20T20:11:48;0.10;;;0.10;;
9904;SDS011;4991;43.566;27.820;2023-12-20T20:14:29;0.10;;;0.10;;
9904;SDS011;4991;43.566;27.820;2023-12-20T20:16:54;0.10;;;0.10;;
9904;SDS011;4991;43.566;27.820;2023-12-20T20:19:20;0.10;;;0.10;;
9904;SDS011;4991;43.566;27.820;2023-12-20T20:21:46;0.10;;;0.10;;
9904;SDS011;4991;43.566;27.820;2023-12-20T20:24:13;0.10;;;0.10;;
9904;SDS011;4991;43.566;27.820;2023-12-20T20:26:39;0.10;;;0.10;;
9904;SDS011;4991;43.566;27.820;2023-12-20T20:29:06;0.20;;;0.20;;
9904;SDS011;4991;43.566;27.820;2023-12-20T20:31:32;0.10;;;0.10;;
9904;SDS011;4991;43.566;27.820;2023-12-20T20:34:00;0.17;;;0.17;;
9904;SDS011;4991;43.566;27.820;2023-12-20T20:36:54;0.10;;;0.10;;
9904;SDS011;4991;43.566;27.820;2023-12-20T20:39:19;0.10;;;0.10;;
9904;SDS011;4991;43.566;27.820;2023-12-20T20:42:06;0.10;;;0.10;;
9904;SDS011;4991;43.566;27.820;2023-12-20T20:44:31;0.10;;;0.10;;
9904;SDS011;4991;43.566;27.820;2023-12-20T20:46:57;0.17;;;0.17;;
9904;SDS011;4991;43.566;27.820;2023-12-20T20:49:23;0.10;;;0.10;;
9904;SDS011;4991;43.566;27.820;2023-12-20T20:52:09;0.10;;;0.10;;
9904;SDS011;4991;43.566;27.820;2023-12-20T20:54:35;0.10;;;0.10;;
9904;SDS011;4991;43.566;27.820;2023-12-20T20:57:01;0.10;;;0.10;;
9904;SDS011;4991;43.566;27.820;2023-12-20T20:59:26;0.10;;;0.10;;
9904;SDS011;4991;43.566;27.820;2023-12-20T21:01:53;0.10;;;0.10;;
9904;SDS011;4991;43.566;27.820;2023-12-20T21:04:18;0.10;;;0.10;;
9904;SDS011;4991;43.566;27.820;2023-12-20T21:06:44;0.10;;;0.10;;
9904;SDS011;4991;43.566;27.820;2023-12-20T21:09:12;0.10;;;0.10;;
9904;SDS011;4991;43.566;27.820;2023-12-20T21:11:38;0.10;;;0.10;;
9904;SDS011;4991;43.566;27.820;2023-12-20T21:14:03;0.10;;;0.10;;
9904;SDS011;4991;43.566;27.820;2023-12-20T21:16:29;0.10;;;0.10;;
9904;SDS011;4991;43.566;27.820;2023-12-20T21:18:54;0.10;;;0.10;;
9904;SDS011;4991;43.566;27.820;2023-12-20T21:21:20;0.10;;;0.10;;
9904;SDS011;4991;43.566;27.820;2023-12-20T21:23:46;0.10;;;0.10;;
9904;SDS011;4991;43.566;27.820;2023-12-20T21:26:11;0.10;;;0.10;;
9904;SDS011;4991;43.566;27.820;2023-12-20T21:28:37;0.10;;;0.10;;
9904;SDS011;4991;43.566;27.820;2023-12-20T21:31:03;0.10;;;0.10;;
9904;SDS011;4991;43.566;27.820;2023-12-20T21:33:48;0.10;;;0.10;;
9904;SDS011;4991;43.566;27.820;2023-12-20T21:36:15;0.10;;;0.10;;
9904;SDS011;4991;43.566;27.820;2023-12-20T21:39:03;0.10;;;0.10;;
9904;SDS011;4991;43.566;27.820;2023-12-20T21:41:29;0.10;;;0.10;;